• Join FlightAware (Why Join?)
  • Login
  • US Flag 
09:28AM EDT


 

Airport Tracker/Info


-or-


 

Live Flight TrackerFlight Track Log ✈ N45EJ ✈ 11-Aug-2013 ✈ KLBF - KPWK

Flight Track Log - Related Links

Times and Time Zones

All times are in EDT time to prevent confusion due to time zone crossing. See the N45EJ flight status page for this flight to view local times or setup timezone preferences in your user account.

Time Position Orientation Groundspeed Altitude Reporting Facility
EDT Latitude Longitude Course Direction KTS MPH feet Rate Location/Type
07:26PM 41.1175 -100.6647 79° East 178 205 3,200  Level Denver Center
07:27PM 41.1125 -100.5994 96° East 199 229 5,400 2,100 Climbing Denver Center
07:28PM 41.2219 -99.9272 80° East  Level FlightAware Approximate
07:28PM 41.1239 -100.5231 79° East 217 250 8,000  Level Denver Center
07:29PM 41.2419 -99.7747 80° East  Level FlightAware Approximate
07:29PM 41.1425 -100.4072 78° East 250 288 11,000  Level Denver Center
07:30PM 41.2617 -99.6222 80° East  Level FlightAware Approximate
07:30PM 41.1633 -100.2900 77° East 284 327 13,600  Level Denver Center
07:31PM 41.2829 -99.4699 79° East  Level FlightAware Approximate
07:31PM 41.1775 -100.1822 80° East 304 350 15,900  Level Denver Center
07:32PM 41.2014 -100.0514 76° East 323 372 17,800 1,560 Climbing Denver Center
07:33PM 41.2389 -99.9475 64° Northeast 325 374 19,200 1,380 Climbing Denver Center
07:34PM 41.2814 -99.8444 61° Northeast 330 380 20,700 1,680 Climbing Denver Center
07:35PM 41.3344 -99.7144 61° Northeast 353 406 22,700 1,800 Climbing Denver Center
07:36PM 41.3881 -99.6006 58° Northeast 369 425 24,500 1,680 Climbing Denver Center
07:37PM 41.4450 -99.4761 59° Northeast 386 444 26,200 1,560 Climbing Denver Center
07:38PM 41.5019 -99.3486 59° Northeast 395 455 27,800 1,500 Climbing Denver Center
07:39PM 41.5750 -99.1894 58° Northeast 412 474 29,300 1,200 Climbing Denver Center
07:40PM 41.6342 -99.0467 61° Northeast 429 494 30,300 780 Climbing Denver Center
07:41PM 41.6953 -98.8981 61° Northeast 447 514 31,000 300 Climbing Denver Center
07:42PM 41.7344 -98.7244 73° East 485 558 31,000  Level Denver Center
07:43PM 41.7850 -98.5936 63° Northeast 492 566 31,000  Level Denver Center
07:45PM 41.8847 -98.3264 63° Northeast 500 575 31,000 240 Level Minneapolis Center
07:46PM 41.9047 -98.1264 82° East 507 583 31,600 720 Climbing Minneapolis Center
07:47PM 41.9192 -97.9378 84° East 507 583 32,700 1,020 Climbing Minneapolis Center
07:48PM 41.9356 -97.7128 84° East 507 583 34,000 1,380 Climbing Minneapolis Center
07:49PM 41.9514 -97.4861 85° East 508 585 35,600 1,440 Climbing Minneapolis Center
07:50PM 41.9644 -97.2994 85° East 503 579 37,000 1,260 Climbing Minneapolis Center
07:51PM 41.9767 -97.1128 85° East 500 575 38,200 1,140 Climbing Minneapolis Center
07:52PM 41.9889 -96.9250 85° East 503 579 39,400 1,140 Climbing Minneapolis Center
07:53PM 42.0006 -96.7378 85° East 502 578 40,600 780 Climbing Minneapolis Center
07:54PM 42.0125 -96.5517 85° East 499 574 41,000 180 Climbing Minneapolis Center
07:55PM 42.0247 -96.3594 85° East 508 585 41,000  Level Minneapolis Center
07:56PM 42.0353 -96.1619 86° East 523 602 41,000  Level Minneapolis Center
07:57PM 42.0469 -95.9611 85° East 533 613 41,000  Level Minneapolis Center
07:58PM 42.0603 -95.7203 86° East 535 616 41,000  Level Minneapolis Center
07:59PM 42.0700 -95.5189 86° East 538 619 41,000  Level Minneapolis Center
08:00PM 42.0808 -95.3175 86° East 537 618 41,000  Level Minneapolis Center
08:01PM 42.0892 -95.1183 87° East 534 615 41,000  Level Minneapolis Center
08:03PM 42.0992 -94.9183 86° East 534 615 41,000  Level Minneapolis Center
08:04PM 42.1072 -94.7167 87° East 537 618 41,000  Level Minneapolis Center
08:05PM 42.1172 -94.5161 86° East 538 619 41,000  Level Minneapolis Center
08:06PM 42.1256 -94.3156 87° East 536 617 41,000  Level Minneapolis Center
08:07PM 42.1336 -94.1139 87° East 538 619 41,000  Level Minneapolis Center
08:08PM 42.1431 -93.8744 87° East 534 615 41,000  Level Minneapolis Center
08:09PM 42.1500 -93.6953 87° East 536 617 41,000  Level Minneapolis Center
08:10PM 42.1572 -93.4975 87° East 535 616 41,000  Level Minneapolis Center
08:11PM 42.1656 -93.2617 87° East 533 613 41,000 -180 Level Minneapolis Center
08:12PM 42.1736 -93.0242 87° East 534 615 40,600 -720 Descending Minneapolis Center
08:13PM 42.1783 -92.8319 88° East 526 605 39,600 -1,080 Descending Minneapolis Center
08:14PM 42.1844 -92.6383 87° East 524 603 38,400 -1,140 Descending Minneapolis Center
08:15PM 42.1903 -92.4439 88° East 524 603 37,300 -720 Descending Minneapolis Center
08:16PM 42.1933 -92.2489 89° East 526 605 37,000 -180 Descending Minneapolis Center
08:17PM 42.1989 -92.0183 88° East 522 601 37,000  Level Minneapolis Center
08:18PM 42.2033 -91.8242 88° East 524 603 37,000 -240 Level Minneapolis Center
08:19PM 42.2064 -91.6314 89° East 525 604 36,600 -1,020 Descending Minneapolis Center
08:20PM 42.2106 -91.3994 89° East 522 601 34,800 -2,040 Descending Chicago Center
08:21PM 42.2144 -91.2097 88° East 517 595 32,200 -2,520 Descending Chicago Center
08:22PM 42.2164 -91.0253 89° East 503 579 29,600 -2,760 Descending Chicago Center
08:23PM 42.2181 -90.7958 89° East 514 592 26,500 -2,640 Descending Chicago Center
08:24PM 42.2211 -90.6025 89° East 522 601 24,200 -1,800 Descending Chicago Center
08:26PM 42.2219 -90.4303 90° East 472 543 22,900 -1,860 Descending Chicago Center
08:27PM 42.2231 -90.2592 89° East 463 533 20,400 -2,640 Descending Chicago Center
08:28PM 42.2244 -90.0622 89° East 445 512 17,500 -2,640 Descending Chicago Center
08:29PM 42.2242 -89.9028 90° East 426 490 15,000 -2,400 Descending Chicago Center
08:30PM 42.2247 -89.7489 90° East 413 475 12,500 -2,400 Descending Chicago Center
08:31PM 42.2261 -89.6022 89° East 396 456 10,100 -1,260 Descending Chicago Center
08:32PM 42.2247 -89.4569 91° East 388 447 10,000 -300 Descending Chicago Center
08:33PM 42.2250 -89.2944 90° East 374 430 9,600 -540 Descending Chicago Center
08:34PM 42.2272 -89.1797 88° East 318 366 9,000 -960 Descending Chicago Center
08:35PM 42.2553 -89.0678 71° East 317 365 7,700 -1,380 Descending Chicago Center
08:36PM 42.2781 -88.9539 75° East 315 362 6,200 -1,260 Descending Chicago Center
08:37PM 42.3011 -88.8453 74° East 304 350 5,100 -600 Descending Chicago Center
08:38PM 42.3264 -88.7231 74° East 296 341 5,000 -60 Descending Chicago Center
08:39PM 42.3497 -88.6156 74° East 295 339 5,000  Level Chicago Center
08:40PM 42.3625 -88.5069 81° East 296 341 5,000 -180 Level Chicago Center
08:41PM 42.3517 -88.3950 97° East 297 342 4,700 -420 Descending Chicago Center
08:42PM 42.3417 -88.2886 97° East 288 331 4,200 -420 Descending Chicago Center
08:43PM 42.3281 -88.1597 98° East 293 337 3,900 -540 Descending Chicago Center
08:44PM 42.3211 -88.0564 95° East 284 327 3,100 -780 Descending Chicago Center
08:45PM 42.2819 -87.9872 127° Southeast 251 289 2,400 -420 Descending Chicago Center
08:46PM 42.2281 -87.9633 162° South 214 246 2,300 -300 Descending Chicago Center
08:47PM 42.1808 -87.9375 158° South 193 222 1,900 -360 Descending Chicago Center
08:48PM 42.1283 -87.9061 156° South 187 215 1,600 -300 Descending Chicago Center